Time;durP1;ratioP1;P1;durP2;ratioP2;P2;SDS_P1;SDS_P2;PMS_P1;PMS_P2;Temp;Humidity;BMP_temperature;BMP_pressure;BME280_temperature;BME280_humidity;BME280_pressure;Samples;Min_cycle;Max_cycle;Signal;HPM_P1;HPM_P2
2022/10/25 00:01:20;;;;;;;2.10;1.40;;;;;;;;;;4950331;28;20051;-64
2022/10/25 00:03:47;;;;;;;1.63;1.50;;;;;;;;;;4949743;28;20494;-63
2022/10/25 00:06:13;;;;;;;4.90;1.30;;;;;;;;;;4950591;28;20117;-64
2022/10/25 00:08:40;;;;;;;6.45;1.83;;;;;;;;;;4949961;28;20048;-63
2022/10/25 00:11:07;;;;;;;3.22;1.45;;;;;;;;;;4951787;28;20051;-63
2022/10/25 00:13:34;;;;;;;5.00;1.90;;;;;;;;;;4952731;28;20063;-62
2022/10/25 00:16:00;;;;;;;3.22;2.00;;;;;;;;;;4954088;28;20105;-63
2022/10/25 00:18:27;;;;;;;4.50;2.03;;;;;;;;;;4953698;28;20567;-64
2022/10/25 00:20:54;;;;;;;3.05;1.73;;;;;;;;;;4953766;28;20043;-63
2022/10/25 00:23:20;;;;;;;4.05;2.30;;;;;;;;;;4953841;28;20047;-63
2022/10/25 00:25:47;;;;;;;3.95;2.22;;;;;;;;;;4953623;28;20055;-63
2022/10/25 00:28:14;;;;;;;4.97;2.05;;;;;;;;;;4953435;28;20055;-63
2022/10/25 00:30:40;;;;;;;3.53;1.92;;;;;;;;;;4953304;28;20055;-63
2022/10/25 00:33:07;;;;;;;6.25;2.08;;;;;;;;;;4953708;28;20055;-64
2022/10/25 00:35:35;;;;;;;2.88;1.75;;;;;;;;;;4953494;28;20502;-64
2022/10/25 00:38:02;;;;;;;4.25;2.35;;;;;;;;;;4953147;29;20063;-64
2022/10/25 00:40:29;;;;;;;7.93;2.17;;;;;;;;;;4953231;28;20101;-63
2022/10/25 00:42:55;;;;;;;4.47;2.08;;;;;;;;;;4953614;28;20047;-63
2022/10/25 00:45:26;;;;;;;3.10;1.98;;;;;;;;;;4953156;28;20055;-64
2022/10/25 00:48:00;;;;;;;5.00;2.00;;;;;;;;;;4953009;28;20051;-63
2022/10/25 00:50:39;;;;;;;4.75;2.38;;;;;;;;;;4953341;28;20051;-63
2022/10/25 00:53:08;;;;;;;4.65;2.15;;;;;;;;;;4952180;29;20051;-63
2022/10/25 00:55:35;;;;;;;4.40;2.30;;;;;;;;;;4953191;29;20109;-63
2022/10/25 00:58:05;;;;;;;4.30;1.85;;;;;;;;;;4935703;29;20064;-63
2022/10/25 01:00:32;;;;;;;4.85;2.40;;;;;;;;;;4949659;28;20055;-64
2022/10/25 01:02:59;;;;;;;5.78;1.95;;;;;;;;;;4953308;28;20043;-64
2022/10/25 01:05:25;;;;;;;2.58;1.60;;;;;;;;;;4952960;28;20051;-63
2022/10/25 01:07:52;;;;;;;4.93;1.67;;;;;;;;;;4951582;28;20085;-63
2022/10/25 01:10:19;;;;;;;2.78;1.60;;;;;;;;;;4951863;28;20047;-64
2022/10/25 01:12:45;;;;;;;4.25;1.83;;;;;;;;;;4951675;28;20047;-63
2022/10/25 01:15:17;;;;;;;7.35;1.70;;;;;;;;;;4952372;28;20051;-63
2022/10/25 01:17:54;;;;;;;2.35;2.00;;;;;;;;;;4936290;29;20097;-62
2022/10/25 01:20:30;;;;;;;5.78;1.70;;;;;;;;;;4951716;29;20066;-63
2022/10/25 01:23:24;;;;;;;4.40;1.90;;;;;;;;;;4952736;28;20047;-64
2022/10/25 01:26:03;;;;;;;4.35;2.15;;;;;;;;;;4953058;28;20082;-63
2022/10/25 01:28:35;;;;;;;5.20;2.08;;;;;;;;;;4951964;28;20055;-63
2022/10/25 01:31:02;;;;;;;8.63;2.70;;;;;;;;;;4952591;28;20481;-63
2022/10/25 01:33:54;;;;;;;3.72;1.60;;;;;;;;;;4952493;28;20502;-63
2022/10/25 01:36:28;;;;;;;4.80;2.00;;;;;;;;;;4952648;28;20108;-63
2022/10/25 01:39:18;;;;;;;6.07;2.78;;;;;;;;;;4950723;29;20083;-63
2022/10/25 01:42:10;;;;;;;5.78;2.25;;;;;;;;;;4951565;28;20489;-63
2022/10/25 01:44:39;;;;;;;7.68;2.35;;;;;;;;;;4951571;29;20058;-63
2022/10/25 01:47:16;;;;;;;5.68;2.33;;;;;;;;;;4951313;28;20479;-64
2022/10/25 01:49:51;;;;;;;3.13;2.00;;;;;;;;;;4950713;28;20085;-64
2022/10/25 01:52:19;;;;;;;4.75;2.20;;;;;;;;;;4951237;28;20498;-63
2022/10/25 01:54:46;;;;;;;5.05;2.00;;;;;;;;;;4952232;28;20101;-63
2022/10/25 01:57:40;;;;;;;4.18;1.63;;;;;;;;;;4952513;28;20082;-63
2022/10/25 02:00:09;;;;;;;6.30;2.10;;;;;;;;;;4952103;29;20051;-62
2022/10/25 02:03:01;;;;;;;4.43;2.10;;;;;;;;;;4951341;28;20517;-63
2022/10/25 02:05:53;;;;;;;3.40;2.17;;;;;;;;;;4951035;28;20062;-63
2022/10/25 02:08:40;;;;;;;4.38;2.20;;;;;;;;;;4931219;29;20487;-62
2022/10/25 02:11:22;;;;;;;6.28;2.00;;;;;;;;;;4933017;28;20055;-63
2022/10/25 02:14:00;;;;;;;6.68;2.00;;;;;;;;;;4932936;28;20056;-63
2022/10/25 02:16:30;;;;;;;2.88;1.98;;;;;;;;;;4932784;28;20102;-63
2022/10/25 02:19:00;;;;;;;5.70;2.40;;;;;;;;;;4915971;29;20048;-62
2022/10/25 02:21:27;;;;;;;4.10;2.58;;;;;;;;;;4916228;28;20047;-63
2022/10/25 02:23:53;;;;;;;4.28;2.60;;;;;;;;;;4931578;29;20095;-63
2022/10/25 02:26:20;;;;;;;3.75;2.25;;;;;;;;;;4916195;29;20471;-63
2022/10/25 02:28:47;;;;;;;5.35;2.33;;;;;;;;;;4915059;29;20087;-63
2022/10/25 02:31:17;;;;;;;6.50;2.25;;;;;;;;;;4932480;29;20056;-62
2022/10/25 02:33:44;;;;;;;4.55;2.22;;;;;;;;;;4930844;28;20083;-63
2022/10/25 02:36:12;;;;;;;6.40;2.35;;;;;;;;;;4929682;29;20100;-63
2022/10/25 02:38:40;;;;;;;6.22;2.50;;;;;;;;;;4951065;28;20055;-62
2022/10/25 02:41:07;;;;;;;5.57;2.30;;;;;;;;;;4951390;28;20055;-63
2022/10/25 02:43:33;;;;;;;7.28;2.10;;;;;;;;;;4950719;29;20125;-63
2022/10/25 02:46:07;;;;;;;5.25;2.10;;;;;;;;;;4951535;28;20101;-64
2022/10/25 02:48:34;;;;;;;5.43;1.95;;;;;;;;;;4951065;28;20055;-63
2022/10/25 02:51:01;;;;;;;5.05;2.10;;;;;;;;;;4951434;28;20051;-64
2022/10/25 02:53:28;;;;;;;4.45;2.35;;;;;;;;;;4951291;28;20110;-63
2022/10/25 02:56:02;;;;;;;7.57;2.58;;;;;;;;;;4951184;28;20058;-64
2022/10/25 02:58:34;;;;;;;4.55;2.20;;;;;;;;;;4951176;28;20083;-63
2022/10/25 03:01:00;;;;;;;8.73;2.63;;;;;;;;;;4951654;28;20093;-63
2022/10/25 03:03:28;;;;;;;4.32;2.15;;;;;;;;;;4951386;28;20490;-63
2022/10/25 03:05:54;;;;;;;8.00;2.67;;;;;;;;;;4951315;28;20145;-63
2022/10/25 03:08:21;;;;;;;5.65;2.28;;;;;;;;;;4950730;28;20055;-63
2022/10/25 03:10:48;;;;;;;4.53;2.33;;;;;;;;;;4951585;28;20134;-63
2022/10/25 03:13:15;;;;;;;6.75;2.58;;;;;;;;;;4951491;28;20094;-63
2022/10/25 03:16:23;;;;;;;6.90;2.80;;;;;;;;;;4951353;28;20055;-63
2022/10/25 03:18:50;;;;;;;5.50;2.35;;;;;;;;;;4950426;28;20047;-63
2022/10/25 03:21:16;;;;;;;3.72;2.53;;;;;;;;;;4951255;28;20516;-63
2022/10/25 03:23:43;;;;;;;5.45;2.47;;;;;;;;;;4951231;28;20083;-63
2022/10/25 03:26:09;;;;;;;6.97;2.30;;;;;;;;;;4951080;28;20047;-63
2022/10/25 03:28:36;;;;;;;3.72;2.50;;;;;;;;;;4950611;28;20052;-63
2022/10/25 03:31:13;;;;;;;7.20;2.88;;;;;;;;;;4948673;28;20055;-63
2022/10/25 03:33:39;;;;;;;7.95;2.45;;;;;;;;;;4951343;28;20403;-64
2022/10/25 03:36:06;;;;;;;6.97;2.53;;;;;;;;;;4951120;28;20051;-64
2022/10/25 03:38:33;;;;;;;5.40;3.15;;;;;;;;;;4950652;28;20055;-63
2022/10/25 03:40:59;;;;;;;5.63;2.55;;;;;;;;;;4951391;28;20124;-63
2022/10/25 03:43:26;;;;;;;9.07;3.38;;;;;;;;;;4950929;28;20125;-63
2022/10/25 03:45:53;;;;;;;5.88;3.35;;;;;;;;;;4951747;28;20059;-64
2022/10/25 03:48:19;;;;;;;10.65;3.22;;;;;;;;;;4953983;28;20051;-64
2022/10/25 03:50:46;;;;;;;9.23;3.00;;;;;;;;;;4954282;28;20047;-63
2022/10/25 03:53:13;;;;;;;4.53;2.67;;;;;;;;;;4954367;28;20081;-64
2022/10/25 03:55:40;;;;;;;6.03;2.90;;;;;;;;;;4954308;28;20468;-64
2022/10/25 03:58:06;;;;;;;5.47;2.92;;;;;;;;;;4953664;28;20098;-64
2022/10/25 04:00:33;;;;;;;4.78;2.50;;;;;;;;;;4954192;28;20090;-63
2022/10/25 04:03:00;;;;;;;6.22;2.90;;;;;;;;;;4954456;28;20142;-63
2022/10/25 04:05:29;;;;;;;7.53;2.47;;;;;;;;;;4952932;28;20055;-63
2022/10/25 04:07:55;;;;;;;5.78;3.17;;;;;;;;;;4953495;28;20091;-63
2022/10/25 04:10:22;;;;;;;5.65;2.50;;;;;;;;;;4953101;29;20083;-63
2022/10/25 04:12:51;;;;;;;6.05;2.75;;;;;;;;;;4953848;28;20126;-62
2022/10/25 04:15:20;;;;;;;6.57;2.38;;;;;;;;;;4953893;28;20048;-63
2022/10/25 04:17:50;;;;;;;4.22;2.33;;;;;;;;;;4953784;28;20055;-62
2022/10/25 04:20:17;;;;;;;4.78;2.17;;;;;;;;;;4954080;28;20051;-63
2022/10/25 04:22:44;;;;;;;5.47;2.28;;;;;;;;;;4954192;28;20051;-63
2022/10/25 04:25:10;;;;;;;4.38;2.47;;;;;;;;;;4953717;28;20051;-63
2022/10/25 04:27:37;;;;;;;4.85;2.80;;;;;;;;;;4953742;28;20141;-64
2022/10/25 04:30:04;;;;;;;7.75;2.92;;;;;;;;;;4953432;28;20055;-63
2022/10/25 04:32:31;;;;;;;9.45;2.90;;;;;;;;;;4954157;28;20085;-63
2022/10/25 04:34:57;;;;;;;7.00;3.10;;;;;;;;;;4953701;28;20502;-63
2022/10/25 04:37:24;;;;;;;4.35;2.22;;;;;;;;;;4954305;28;20051;-63
2022/10/25 04:39:50;;;;;;;7.32;2.60;;;;;;;;;;4953333;28;20058;-64
2022/10/25 04:42:18;;;;;;;7.03;2.75;;;;;;;;;;4953835;28;20052;-63
2022/10/25 04:44:45;;;;;;;10.20;2.83;;;;;;;;;;4953705;28;20515;-63
2022/10/25 04:47:11;;;;;;;7.35;2.72;;;;;;;;;;4953602;28;20062;-63
2022/10/25 04:49:38;;;;;;;5.35;2.53;;;;;;;;;;4952313;28;20097;-62
2022/10/25 04:52:05;;;;;;;4.30;2.60;;;;;;;;;;4953416;28;20051;-62
2022/10/25 04:54:31;;;;;;;5.10;2.63;;;;;;;;;;4953117;28;20126;-63
2022/10/25 04:56:58;;;;;;;7.38;3.10;;;;;;;;;;4952919;28;20047;-63
2022/10/25 04:59:24;;;;;;;5.43;2.95;;;;;;;;;;4952713;28;20055;-63
2022/10/25 05:01:51;;;;;;;5.90;3.13;;;;;;;;;;4953787;28;20105;-63
2022/10/25 05:04:18;;;;;;;8.02;2.97;;;;;;;;;;4953206;28;20109;-64
2022/10/25 05:06:44;;;;;;;5.63;2.88;;;;;;;;;;5071749;22;20080;-64
2022/10/25 05:09:11;;;;;;;5.63;2.63;;;;;;;;;;5053294;28;20426;-66
2022/10/25 05:11:38;;;;;;;8.55;3.20;;;;;;;;;;5053942;28;20106;-65
2022/10/25 05:14:04;;;;;;;4.82;2.75;;;;;;;;;;5053892;28;20130;-65
2022/10/25 05:16:33;;;;;;;4.72;3.42;;;;;;;;;;5053503;28;20049;-65
2022/10/25 05:19:00;;;;;;;7.30;3.85;;;;;;;;;;5053032;28;20095;-65
2022/10/25 05:21:29;;;;;;;7.35;2.50;;;;;;;;;;5053710;28;20106;-65
2022/10/25 05:23:57;;;;;;;8.40;3.75;;;;;;;;;;5054479;28;20103;-65
2022/10/25 05:26:28;;;;;;;5.75;2.90;;;;;;;;;;5054079;28;20056;-65
2022/10/25 05:28:55;;;;;;;6.03;3.15;;;;;;;;;;5072423;28;20122;-65
2022/10/25 05:31:24;;;;;;;6.32;3.33;;;;;;;;;;5073449;28;20048;-64
2022/10/25 05:33:52;;;;;;;5.72;3.28;;;;;;;;;;5073257;28;20090;-64
2022/10/25 05:36:19;;;;;;;7.03;3.30;;;;;;;;;;5073190;28;20113;-64
2022/10/25 05:38:46;;;;;;;10.48;3.17;;;;;;;;;;5054644;28;20052;-66
2022/10/25 05:41:14;;;;;;;9.50;3.35;;;;;;;;;;5053438;28;20059;-64
2022/10/25 05:43:40;;;;;;;5.93;3.40;;;;;;;;;;5053392;28;20044;-64
2022/10/25 05:46:13;;;;;;;7.20;3.33;;;;;;;;;;5053123;28;20053;-64
2022/10/25 05:48:40;;;;;;;4.72;3.55;;;;;;;;;;5052421;28;20060;-64
2022/10/25 05:51:19;;;;;;;7.38;3.22;;;;;;;;;;5053346;28;20057;-65
2022/10/25 05:54:00;;;;;;;6.72;2.90;;;;;;;;;;5053090;28;20068;-65
2022/10/25 05:56:28;;;;;;;5.93;3.28;;;;;;;;;;5066854;28;20053;-65
2022/10/25 05:58:56;;;;;;;4.90;2.85;;;;;;;;;;5072346;28;20560;-65
2022/10/25 06:01:25;;;;;;;5.10;2.97;;;;;;;;;;5072785;28;20056;-66
2022/10/25 06:03:53;;;;;;;8.40;2.78;;;;;;;;;;5072937;28;20048;-65
2022/10/25 06:06:22;;;;;;;8.02;3.20;;;;;;;;;;5059632;28;20052;-65
2022/10/25 06:08:48;;;;;;;5.65;2.60;;;;;;;;;;5051663;28;20053;-64
2022/10/25 06:11:17;;;;;;;4.60;2.92;;;;;;;;;;5053197;28;20106;-64
2022/10/25 06:13:43;;;;;;;6.90;3.00;;;;;;;;;;5052548;28;20450;-65
2022/10/25 06:16:12;;;;;;;5.05;2.97;;;;;;;;;;5052449;28;20057;-65
2022/10/25 06:18:39;;;;;;;5.97;3.13;;;;;;;;;;5052512;28;20045;-65
2022/10/25 06:21:10;;;;;;;7.47;3.45;;;;;;;;;;5052263;28;20511;-65
2022/10/25 06:23:37;;;;;;;7.13;3.67;;;;;;;;;;5052555;28;20049;-66
2022/10/25 06:26:08;;;;;;;8.10;3.53;;;;;;;;;;5062052;28;20110;-65
2022/10/25 06:28:35;;;;;;;8.32;3.30;;;;;;;;;;5072026;28;20064;-65
2022/10/25 06:31:12;;;;;;;6.55;3.17;;;;;;;;;;5072288;28;20117;-65
2022/10/25 06:33:39;;;;;;;6.45;3.13;;;;;;;;;;5072561;28;20491;-66
2022/10/25 06:36:17;;;;;;;6.55;2.90;;;;;;;;;;5072166;28;20045;-64
2022/10/25 06:38:44;;;;;;;6.50;3.35;;;;;;;;;;5055210;28;20543;-65
2022/10/25 06:41:15;;;;;;;6.97;3.10;;;;;;;;;;5072602;28;20083;-65
2022/10/25 06:43:42;;;;;;;4.30;3.08;;;;;;;;;;5072121;28;20099;-64
2022/10/25 06:46:12;;;;;;;8.32;3.25;;;;;;;;;;5061525;28;20554;-66
2022/10/25 06:48:38;;;;;;;8.63;3.08;;;;;;;;;;5033989;28;20053;-65
2022/10/25 06:51:08;;;;;;;8.38;3.10;;;;;;;;;;5051944;28;20099;-66
2022/10/25 06:53:35;;;;;;;7.60;3.60;;;;;;;;;;5052182;28;20419;-66
2022/10/25 06:56:04;;;;;;;5.40;3.30;;;;;;;;;;5061119;28;20177;-65
2022/10/25 06:58:35;;;;;;;7.47;3.45;;;;;;;;;;5071367;28;20055;-65
2022/10/25 07:01:08;;;;;;;9.30;3.63;;;;;;;;;;5071947;28;20143;-66
2022/10/25 07:03:35;;;;;;;;;;;;;;;;;;5054523;28;20064;-66
2022/10/25 07:06:05;;;;;;;5.30;3.25;;;;;;;;;;5062837;28;19975;-66
2022/10/25 07:08:32;;;;;;;6.60;3.78;;;;;;;;;;5051424;28;20053;-65
2022/10/25 07:11:00;;;;;;;9.18;3.97;;;;;;;;;;5051756;28;20053;-67
2022/10/25 07:13:27;;;;;;;9.77;4.25;;;;;;;;;;5051635;28;20044;-64
2022/10/25 07:16:00;;;;;;;8.05;4.15;;;;;;;;;;5056867;28;20044;-65
2022/10/25 07:18:27;;;;;;;4.82;3.10;;;;;;;;;;5060548;28;20049;-64
2022/10/25 07:21:00;;;;;;;7.32;3.22;;;;;;;;;;5051237;28;20053;-64
2022/10/25 07:23:27;;;;;;;;;;;;;;;;;;5052195;28;20049;-64
2022/10/25 07:25:54;;;;;;;6.50;2.40;;;;;;;;;;5060968;28;19982;-64
2022/10/25 07:28:21;;;;;;;8.43;2.90;;;;;;;;;;5070965;28;20102;-64
2022/10/25 07:30:47;;;;;;;6.28;2.55;;;;;;;;;;5071243;28;20106;-64
2022/10/25 07:33:16;;;;;;;3.10;2.20;;;;;;;;;;5071681;28;20049;-64
2022/10/25 07:35:45;;;;;;;6.57;2.15;;;;;;;;;;5071326;28;20049;-64
2022/10/25 07:38:31;;;;;;;5.05;2.13;;;;;;;;;;5071097;28;20469;-64
2022/10/25 07:40:58;;;;;;;2.95;1.83;;;;;;;;;;5071477;28;20105;-65
2022/10/25 07:43:25;;;;;;;4.15;2.15;;;;;;;;;;5071347;28;20044;-65
2022/10/25 07:45:52;;;;;;;6.50;2.08;;;;;;;;;;5071057;28;20048;-66
2022/10/25 07:48:19;;;;;;;2.80;2.10;;;;;;;;;;5054919;28;20053;-66
2022/10/25 07:50:46;;;;;;;9.35;2.33;;;;;;;;;;5051208;28;20095;-65
2022/10/25 07:53:12;;;;;;;5.75;2.28;;;;;;;;;;5051344;28;20045;-63
2022/10/25 07:55:39;;;;;;;5.13;2.40;;;;;;;;;;5060829;28;20052;-66
2022/10/25 07:58:07;;;;;;;3.15;1.60;;;;;;;;;;5070788;28;20106;-65
2022/10/25 08:00:34;;;;;;;5.18;1.85;;;;;;;;;;5070951;28;20499;-66
2022/10/25 08:03:01;;;;;;;3.03;1.65;;;;;;;;;;5071511;28;20056;-66
2022/10/25 08:05:28;;;;;;;4.95;2.10;;;;;;;;;;5071170;28;20083;-65
2022/10/25 08:07:55;;;;;;;3.00;2.10;;;;;;;;;;5070761;28;20052;-66
2022/10/25 08:10:21;;;;;;;3.72;2.25;;;;;;;;;;5071076;28;20465;-66
2022/10/25 08:12:48;;;;;;;4.47;1.95;;;;;;;;;;5071257;28;20056;-65
2022/10/25 08:15:16;;;;;;;4.38;1.80;;;;;;;;;;5071123;28;20102;-66
2022/10/25 08:17:42;;;;;;;4.50;1.33;;;;;;;;;;5071092;28;20053;-66
2022/10/25 08:20:09;;;;;;;3.55;1.90;;;;;;;;;;5070408;28;20049;-66
2022/10/25 08:22:35;;;;;;;6.15;1.80;;;;;;;;;;5071257;28;20086;-65
2022/10/25 08:25:03;;;;;;;3.70;2.03;;;;;;;;;;5070664;28;20080;-65
2022/10/25 08:27:31;;;;;;;5.47;1.80;;;;;;;;;;5070965;28;20143;-65
2022/10/25 08:29:57;;;;;;;8.90;2.67;;;;;;;;;;5070398;28;20098;-66
2022/10/25 08:32:24;;;;;;;3.60;1.60;;;;;;;;;;5073138;28;20052;-66
2022/10/25 08:34:51;;;;;;;6.03;1.70;;;;;;;;;;5073863;28;20045;-65
2022/10/25 08:37:17;;;;;;;4.05;1.50;;;;;;;;;;5074542;28;20455;-66
2022/10/25 08:39:44;;;;;;;3.80;1.58;;;;;;;;;;5074252;28;20095;-65
2022/10/25 08:42:17;;;;;;;3.22;1.80;;;;;;;;;;5074512;28;20519;-65
2022/10/25 08:44:55;;;;;;;;;;;;;;;;;;5040829;28;20090;-66
2022/10/25 08:47:36;;;;;;;3.10;1.50;;;;;;;;;;5036635;28;20380;-65
2022/10/25 08:50:19;;;;;;;4.97;1.42;;;;;;;;;;5021268;28;20056;-66
2022/10/25 08:52:52;;;;;;;4.22;1.60;;;;;;;;;;5020744;28;20045;-65
2022/10/25 08:55:31;;;;;;;2.05;1.30;;;;;;;;;;5021254;28;20045;-65
2022/10/25 08:57:59;;;;;;;3.28;1.40;;;;;;;;;;5036054;28;20049;-65
2022/10/25 09:00:27;;;;;;;4.30;1.73;;;;;;;;;;5020071;28;20045;-65
2022/10/25 09:02:55;;;;;;;5.90;1.92;;;;;;;;;;5020422;28;20103;-65
2022/10/25 09:05:41;;;;;;;3.55;1.50;;;;;;;;;;5024968;28;20049;-66
2022/10/25 09:08:26;;;;;;;4.30;1.65;;;;;;;;;;5055806;28;20491;-66
2022/10/25 09:11:21;;;;;;;5.00;1.75;;;;;;;;;;5073837;28;20044;-65
2022/10/25 09:14:06;;;;;;;4.47;1.63;;;;;;;;;;5073807;28;20048;-66
2022/10/25 09:16:53;;;;;;;4.25;1.73;;;;;;;;;;5057466;28;20048;-66
2022/10/25 09:19:31;;;;;;;5.68;1.60;;;;;;;;;;5072930;28;20349;-65
2022/10/25 09:22:03;;;;;;;3.97;1.67;;;;;;;;;;5057223;28;20102;-66
2022/10/25 09:24:53;;;;;;;3.92;1.23;;;;;;;;;;5073878;28;20426;-66
2022/10/25 09:27:26;;;;;;;;;;;;;;;;;;5056783;28;20453;-65
2022/10/25 09:29:57;;;;;;;2.67;1.42;;;;;;;;;;5073123;28;19928;-66
2022/10/25 09:32:28;;;;;;;3.83;1.35;;;;;;;;;;5054410;28;20048;-66
2022/10/25 09:34:55;;;;;;;7.13;1.27;;;;;;;;;;5055377;28;20090;-66
2022/10/25 09:37:44;;;;;;;3.80;1.40;;;;;;;;;;5055829;28;20049;-66
2022/10/25 09:40:23;;;;;;;6.05;1.40;;;;;;;;;;5055526;28;20056;-66
2022/10/25 09:42:53;;;;;;;6.90;1.88;;;;;;;;;;5039592;28;20048;-66
2022/10/25 09:45:27;;;;;;;4.60;1.65;;;;;;;;;;5073444;28;20138;-66
2022/10/25 09:47:56;;;;;;;3.05;1.38;;;;;;;;;;5055187;28;20052;-66
2022/10/25 09:50:45;;;;;;;2.75;1.25;;;;;;;;;;5054370;28;20569;-66
2022/10/25 09:53:16;;;;;;;4.70;1.40;;;;;;;;;;5073965;28;20048;-64
2022/10/25 09:55:55;;;;;;;2.38;1.00;;;;;;;;;;5072862;28;20461;-64
2022/10/25 09:58:24;;;;;;;4.22;1.85;;;;;;;;;;5054911;28;20479;-64
2022/10/25 10:00:51;;;;;;;9.85;1.65;;;;;;;;;;5055106;28;20084;-64
2022/10/25 10:03:18;;;;;;;3.58;1.38;;;;;;;;;;5055509;28;20419;-65
2022/10/25 10:05:51;;;;;;;4.80;1.02;;;;;;;;;;5054602;28;20117;-65
2022/10/25 10:08:18;;;;;;;7.55;1.85;;;;;;;;;;5034868;28;20106;-65
2022/10/25 10:10:45;;;;;;;7.85;1.60;;;;;;;;;;5052843;28;20049;-65
2022/10/25 10:13:18;;;;;;;6.00;1.85;;;;;;;;;;5018571;28;20423;-65
2022/10/25 10:15:55;;;;;;;2.80;1.15;;;;;;;;;;5059339;28;20048;-65
2022/10/25 10:18:25;;;;;;;4.05;1.33;;;;;;;;;;5054497;28;20098;-66
2022/10/25 10:21:03;;;;;;;1.63;1.02;;;;;;;;;;5072539;28;20049;-65
2022/10/25 10:23:32;;;;;;;3.13;1.02;;;;;;;;;;5072465;28;20071;-66
2022/10/25 10:26:00;;;;;;;5.07;1.17;;;;;;;;;;5045889;28;20111;-65
2022/10/25 10:28:27;;;;;;;3.42;1.58;;;;;;;;;;5034593;28;20100;-65
2022/10/25 10:30:55;;;;;;;10.55;1.13;;;;;;;;;;5034669;28;20045;-65
2022/10/25 10:33:22;;;;;;;4.03;0.85;;;;;;;;;;5018559;28;20122;-65
2022/10/25 10:35:50;;;;;;;3.33;1.15;;;;;;;;;;5019290;28;20090;-65
2022/10/25 10:38:21;;;;;;;9.70;1.88;;;;;;;;;;5017704;28;20056;-65
2022/10/25 10:41:22;;;;;;;4.18;1.35;;;;;;;;;;5052343;28;20073;-65
2022/10/25 10:43:49;;;;;;;3.05;1.00;;;;;;;;;;5025651;28;20103;-64
2022/10/25 10:46:18;;;;;;;2.97;0.90;;;;;;;;;;5060692;28;20049;-64
2022/10/25 10:48:46;;;;;;;3.35;0.98;;;;;;;;;;5054308;28;20048;-64
2022/10/25 10:51:16;;;;;;;4.75;1.23;;;;;;;;;;5037901;28;20485;-63
2022/10/25 10:54:24;;;;;;;3.70;1.42;;;;;;;;;;5043366;28;20052;-64
2022/10/25 10:56:55;;;;;;;2.33;0.98;;;;;;;;;;5058845;28;20503;-64
2022/10/25 10:59:45;;;;;;;4.22;1.42;;;;;;;;;;5051182;28;20499;-65
2022/10/25 11:02:22;;;;;;;3.00;1.20;;;;;;;;;;5034396;28;20099;-65
2022/10/25 11:04:51;;;;;;;3.95;1.10;;;;;;;;;;5034137;28;20087;-64
2022/10/25 11:07:38;;;;;;;2.30;0.70;;;;;;;;;;5106687;22;20109;-62
2022/10/25 11:10:13;;;;;;;1.92;0.80;;;;;;;;;;5090601;28;20048;-62
2022/10/25 11:12:41;;;;;;;4.93;1.20;;;;;;;;;;5092307;28;20052;-61
2022/10/25 11:15:13;;;;;;;4.22;1.25;;;;;;;;;;5091817;28;20047;-63
2022/10/25 11:18:06;;;;;;;1.98;1.00;;;;;;;;;;5053948;28;20154;-62
2022/10/25 11:20:40;;;;;;;3.28;0.80;;;;;;;;;;5051078;28;20099;-64
2022/10/25 11:23:12;;;;;;;2.75;0.70;;;;;;;;;;5070784;28;20564;-63
2022/10/25 11:26:06;;;;;;;4.13;0.88;;;;;;;;;;5054160;28;20045;-62
2022/10/25 11:29:17;;;;;;;2.83;0.73;;;;;;;;;;5070047;28;20392;-63
2022/10/25 11:32:12;;;;;;;2.83;0.88;;;;;;;;;;5071684;28;20048;-63
2022/10/25 11:35:20;;;;;;;5.97;1.30;;;;;;;;;;5070273;28;20052;-63
2022/10/25 11:37:59;;;;;;;1.13;0.70;;;;;;;;;;5054247;28;20055;-62
2022/10/25 11:40:30;;;;;;;5.85;0.73;;;;;;;;;;5070317;28;20082;-63
2022/10/25 11:43:18;;;;;;;2.53;0.80;;;;;;;;;;5069565;28;20509;-62
2022/10/25 11:45:47;;;;;;;5.20;0.70;;;;;;;;;;5071508;28;20494;-61
2022/10/25 11:48:35;;;;;;;1.10;0.63;;;;;;;;;;5070076;28;20519;-63
2022/10/25 11:51:09;;;;;;;4.85;0.90;;;;;;;;;;5071532;28;20044;-62
2022/10/25 11:54:01;;;;;;;3.83;1.15;;;;;;;;;;5070452;28;20063;-63
2022/10/25 11:56:38;;;;;;;1.52;0.90;;;;;;;;;;5071592;28;20052;-61
2022/10/25 11:59:27;;;;;;;4.32;0.60;;;;;;;;;;5054093;28;20469;-61
2022/10/25 12:01:57;;;;;;;1.42;0.50;;;;;;;;;;5071567;28;20048;-62
2022/10/25 12:04:39;;;;;;;4.53;1.20;;;;;;;;;;5070188;28;20053;-61
2022/10/25 12:07:18;;;;;;;2.80;0.80;;;;;;;;;;5071463;28;20560;-62
2022/10/25 12:09:50;;;;;;;2.63;0.85;;;;;;;;;;5073435;28;20491;-61
2022/10/25 12:12:20;;;;;;;4.68;1.35;;;;;;;;;;5073950;28;20106;-61
2022/10/25 12:14:49;;;;;;;4.82;1.08;;;;;;;;;;5073797;28;20040;-62
2022/10/25 12:17:27;;;;;;;3.55;1.02;;;;;;;;;;5057245;28;20094;-62
2022/10/25 12:19:56;;;;;;;2.70;0.98;;;;;;;;;;5073992;28;20110;-63
2022/10/25 12:22:33;;;;;;;7.70;1.00;;;;;;;;;;5075108;28;20495;-62
2022/10/25 12:25:58;;;;;;;4.28;0.90;;;;;;;;;;5073967;28;20105;-62
2022/10/25 12:28:29;;;;;;;2.35;0.88;;;;;;;;;;4992971;28;20054;-63
2022/10/25 12:31:01;;;;;;;4.22;1.10;;;;;;;;;;4993215;28;20111;-63
2022/10/25 12:33:27;;;;;;;3.47;1.07;;;;;;;;;;5020750;28;20052;-63
2022/10/25 12:35:58;;;;;;;2.78;0.98;;;;;;;;;;5074770;28;20453;-62
2022/10/25 12:38:35;;;;;;;6.15;1.27;;;;;;;;;;5074116;28;20097;-63
2022/10/25 12:41:08;;;;;;;5.07;1.35;;;;;;;;;;5074652;28;20075;-63
2022/10/25 12:43:42;;;;;;;4.97;0.90;;;;;;;;;;5073471;28;20101;-64
2022/10/25 12:46:09;;;;;;;3.30;1.42;;;;;;;;;;5073398;28;20040;-64
2022/10/25 12:48:54;;;;;;;3.20;1.13;;;;;;;;;;5073929;28;20102;-63
2022/10/25 12:51:31;;;;;;;3.20;1.20;;;;;;;;;;5074765;28;20082;-62
2022/10/25 12:54:08;;;;;;;3.25;1.00;;;;;;;;;;5057337;28;20588;-62
2022/10/25 12:57:08;;;;;;;3.50;1.30;;;;;;;;;;5073383;28;20049;-62
2022/10/25 12:59:53;;;;;;;4.97;0.95;;;;;;;;;;5069490;28;20079;-63
2022/10/25 13:02:57;;;;;;;3.55;0.90;;;;;;;;;;5074914;28;20495;-63
2022/10/25 13:05:32;;;;;;;5.43;1.38;;;;;;;;;;5074306;28;20056;-63
2022/10/25 13:08:03;;;;;;;2.90;0.95;;;;;;;;;;5073608;28;20057;-63
2022/10/25 13:10:41;;;;;;;2.63;0.73;;;;;;;;;;5072735;28;20091;-63
2022/10/25 13:13:21;;;;;;;3.45;1.00;;;;;;;;;;5057056;28;20110;-63
2022/10/25 13:15:49;;;;;;;6.70;1.00;;;;;;;;;;5072690;28;20040;-63
2022/10/25 13:18:31;;;;;;;3.42;1.25;;;;;;;;;;5072063;28;20044;-63
2022/10/25 13:21:01;;;;;;;2.25;0.65;;;;;;;;;;5073991;28;20057;-63
2022/10/25 13:23:44;;;;;;;1.90;0.70;;;;;;;;;;5073037;28;20048;-64
2022/10/25 13:26:14;;;;;;;4.63;1.00;;;;;;;;;;5073859;28;20052;-63
2022/10/25 13:28:54;;;;;;;3.78;1.00;;;;;;;;;;5073235;28;20052;-63
2022/10/25 13:31:33;;;;;;;3.05;1.15;;;;;;;;;;5072512;28;20052;-62
2022/10/25 13:34:12;;;;;;;2.85;1.08;;;;;;;;;;5073785;28;20415;-63
2022/10/25 13:36:50;;;;;;;5.15;0.95;;;;;;;;;;5074181;28;20088;-63
2022/10/25 13:39:41;;;;;;;6.95;1.10;;;;;;;;;;5071847;28;20507;-63
2022/10/25 13:42:08;;;;;;;3.28;0.77;;;;;;;;;;5073851;28;20052;-63
2022/10/25 13:44:48;;;;;;;3.75;0.85;;;;;;;;;;5073453;28;20083;-63
2022/10/25 13:47:27;;;;;;;3.40;0.80;;;;;;;;;;5057057;28;20103;-63
2022/10/25 13:49:54;;;;;;;2.60;0.88;;;;;;;;;;5071820;28;20048;-63
2022/10/25 13:52:22;;;;;;;5.47;1.52;;;;;;;;;;5073522;28;20102;-64
2022/10/25 13:54:50;;;;;;;5.93;1.00;;;;;;;;;;5072136;28;20087;-65
2022/10/25 13:57:49;;;;;;;5.75;1.27;;;;;;;;;;5073433;28;20408;-63
2022/10/25 14:00:22;;;;;;;3.17;0.82;;;;;;;;;;5071861;28;20053;-63
2022/10/25 14:03:07;;;;;;;4.07;1.17;;;;;;;;;;5073498;28;20054;-64
2022/10/25 14:05:55;;;;;;;2.08;0.82;;;;;;;;;;5072996;28;20049;-63
2022/10/25 14:08:24;;;;;;;4.78;1.00;;;;;;;;;;5072555;28;20101;-63
2022/10/25 14:10:51;;;;;;;3.90;1.27;;;;;;;;;;5072866;28;20103;-63
2022/10/25 14:13:24;;;;;;;4.18;1.20;;;;;;;;;;5071781;28;20495;-63
2022/10/25 14:15:55;;;;;;;6.07;1.45;;;;;;;;;;5055931;28;20181;-62
2022/10/25 14:18:22;;;;;;;3.72;1.10;;;;;;;;;;5036540;28;20114;-63
2022/10/25 14:20:52;;;;;;;2.17;1.05;;;;;;;;;;5035115;28;20102;-63
2022/10/25 14:23:21;;;;;;;6.03;1.25;;;;;;;;;;5051720;28;20053;-64
2022/10/25 14:25:49;;;;;;;3.45;0.95;;;;;;;;;;5051435;28;20488;-63
2022/10/25 14:28:30;;;;;;;2.28;0.98;;;;;;;;;;5034900;28;20048;-63
2022/10/25 14:31:03;;;;;;;4.75;1.02;;;;;;;;;;5052142;28;20056;-63
2022/10/25 14:33:35;;;;;;;2.90;0.80;;;;;;;;;;5052721;28;20053;-63
2022/10/25 14:36:09;;;;;;;3.47;0.70;;;;;;;;;;5053979;28;20110;-63
2022/10/25 14:39:23;;;;;;;2.55;0.73;;;;;;;;;;5070705;28;20101;-63
2022/10/25 14:41:51;;;;;;;4.18;0.80;;;;;;;;;;5066952;28;20055;-63
2022/10/25 14:44:42;;;;;;;3.47;1.60;;;;;;;;;;5071103;28;20083;-63
2022/10/25 14:47:31;;;;;;;2.50;1.00;;;;;;;;;;5071076;28;20048;-63
2022/10/25 14:49:58;;;;;;;4.32;1.00;;;;;;;;;;5071679;28;20101;-63
2022/10/25 14:52:25;;;;;;;4.97;0.95;;;;;;;;;;5071160;28;20045;-63
2022/10/25 14:54:54;;;;;;;5.13;0.95;;;;;;;;;;5070992;28;20041;-63
2022/10/25 14:57:22;;;;;;;3.28;1.20;;;;;;;;;;5071057;28;20052;-63
2022/10/25 14:59:50;;;;;;;5.55;1.35;;;;;;;;;;5070203;28;20453;-63
2022/10/25 15:02:23;;;;;;;3.35;0.90;;;;;;;;;;5054579;28;20059;-62
2022/10/25 15:04:51;;;;;;;4.03;1.15;;;;;;;;;;5054486;28;20098;-62
2022/10/25 15:07:41;;;;;;;2.83;0.98;;;;;;;;;;5070443;28;20067;-61
2022/10/25 15:10:41;;;;;;;2.85;1.15;;;;;;;;;;5070211;28;20098;-62
2022/10/25 15:13:21;;;;;;;6.25;1.10;;;;;;;;;;5072028;28;20049;-63
2022/10/25 15:15:50;;;;;;;5.50;1.27;;;;;;;;;;5054271;28;20079;-62